Hauptseite
METAR-TAF:

METAR-TAF

Flughäfen :

Frontone, Italien

Breite: 43-31N, Länge: 012-44E, Höhe: 570 m

Beobachtung

Neuester Wetterbericht von vor 1 Stunde und 7 Minuten, um 17:55 UTC
Wind 4 kt aus Nord/Nordwest
Temperatur 18°C
Luftfeuchtigkeit 59%
Luftdruck 1004 hPa
Sichtweite 10 km oder mehr
Aufgelockert bewölkt in der Höhe von 2500 ft
Aufgelockert bewölkt in der Höhe von 3500 ft

METAR: LIVF 301755Z 33004KT 9999 SCT025 SCT035 18/10 Q1004

Zeit: 21:02 (19:02 UTC)


TAF: fehlend

Wetterbeobachtungen und Prognosen von mehr als 4000 Flughäfen (METAR und TAF Bericht).

Die verfügbaren Stationen werden durch gelbe und rote Markierungen auf der Karte dargestellt.

Führen Sie die Maus auf sie, um den Namen der Station zu sehen.

Darauf klicken, um die Beobachtung von Wetterbeobachtungen und Prognosen zu sehen.

Um die Karte zu ändern : klicken Sie auf den grünen Tasten mit einem schwarzen Kreuz Zum Vergrößern, auf den grünen Button mit einem Gedankenstrich zu verkleinern, oder auf die grünen Pfeile für benachbarte Karten.


METAR-TAF: